Hlavní strana
METAR-TAF:

METAR-TAF

Letiště :

Vientiane, Laos

zeměpisná šířka: 17-57N, zeměpisná délka: 102-34E, výška: 171 m

Aktuální stav počasí

Zpráva byla vytvořena před 6 hodinami a 41 minutami, v 16:00 UTC
Západoseverozápadní vítr 2 kt
Teplota 21°C
Vlhkost vzduchu 83%
Tlak 1011 hPa
Viditelnost: 3000 m
kouřmo

METAR: VLVT 201600Z 30002KT 3000 BR NSC 21/18 Q1011 NOSIG

Čas: 05:41 (22:41 UTC)

Předpověď počasí

Zpráva byla vytvořena před 5 hodinami a 41 minutami, v 17:00 UTC
Předpověď platná od 20 v 18 UTC do 21 v 18 UTC
Severozápadní vítr 4 kt
Viditelnost: 8000 m
Skoro jasno ve výšce 2000 ft
Skoro jasno ve výšce 20000 ft
Dočasný
od 20 v 18 UTC do 20 v 22 UTC
Viditelnost: 4000 m
Skoro jasno ve výšce 5000 ft
kouřmo

TAF: VLVT 201700Z 2018/2118 32004KT 8000 FEW020 FEW200 TEMPO 2018/2022 4000 BR FEW050

Stav a předpovědi počasí z více než 4 000 letišť (zprávy METAR a TAF).

Červené a žluté tečky na mapě představují dostupné meteorologické stanice.

Když kurzor umístíte na tečku, zobrazí se název stanice.

Pak kliknutím zobrazíte stav a předpověď počasí.

Chcete-li změnit mapu, kliknutím na zelené tlačítko se znaménkem +mapu přiblížíte, kliknutím na zelené tlačítko se znaménkem – mapu oddálíte a kliknutím na zelené šipky přejdete na sousední mapy.


METAR-TAF: